createdAt,value
2017-07-22T00:00:05.673Z,0
2017-07-22T00:01:08.098Z,0
2017-07-22T00:02:10.191Z,0
2017-07-22T00:03:12.288Z,0
2017-07-22T00:04:14.376Z,0
2017-07-22T00:05:16.809Z,0
2017-07-22T00:06:18.924Z,0
2017-07-22T00:07:20.997Z,0
2017-07-22T00:08:23.441Z,0
2017-07-22T00:09:25.536Z,0
2017-07-22T00:10:27.616Z,0
2017-07-22T00:11:30.042Z,0
2017-07-22T00:12:32.170Z,0
2017-07-22T00:13:34.594Z,0
2017-07-22T00:14:37.044Z,0
2017-07-22T00:15:39.819Z,0
2017-07-22T00:16:41.911Z,0
2017-07-22T00:17:44.370Z,0
2017-07-22T00:18:46.791Z,0
2017-07-22T00:19:48.883Z,0
2017-07-22T00:20:50.969Z,0
2017-07-22T00:21:53.049Z,0
2017-07-22T00:22:55.513Z,0
2017-07-22T00:23:57.594Z,0
2017-07-22T00:25:00.027Z,0
2017-07-22T00:26:02.133Z,0
2017-07-22T00:27:04.929Z,0
2017-07-22T00:28:07.028Z,0
2017-07-22T00:29:09.458Z,0
2017-07-22T00:30:11.553Z,0
2017-07-22T00:31:14.006Z,0
2017-07-22T00:32:16.080Z,0
2017-07-22T00:33:18.181Z,0
2017-07-22T00:34:20.609Z,0
2017-07-22T00:35:22.708Z,0
2017-07-22T00:36:24.794Z,0
2017-07-22T00:37:26.889Z,0
2017-07-22T00:38:28.977Z,0
2017-07-22T00:39:31.056Z,0
2017-07-22T00:40:34.190Z,0
2017-07-22T00:41:36.271Z,0
2017-07-22T00:42:38.349Z,0
2017-07-22T00:43:40.799Z,0
2017-07-22T00:44:43.230Z,0
2017-07-22T00:45:45.326Z,0
2017-07-22T00:46:47.422Z,0
2017-07-22T00:47:49.864Z,0
2017-07-22T00:48:51.965Z,0
2017-07-22T00:49:54.053Z,0
2017-07-22T00:50:56.149Z,0
2017-07-22T00:51:58.579Z,0
2017-07-22T00:53:01.006Z,0
2017-07-22T00:54:03.092Z,0
2017-07-22T00:55:05.185Z,0
2017-07-22T00:56:07.273Z,0
2017-07-22T00:57:09.359Z,0
2017-07-22T00:58:11.467Z,0
2017-07-22T00:59:13.585Z,0
2017-07-22T01:00:15.662Z,0
2017-07-22T01:01:18.088Z,0
2017-07-22T01:02:20.179Z,0
2017-07-22T01:03:22.289Z,0
2017-07-22T01:04:24.392Z,0
2017-07-22T01:05:26.823Z,0
2017-07-22T01:06:29.953Z,0
2017-07-22T01:07:32.026Z,0
2017-07-22T01:08:34.107Z,0
2017-07-22T01:09:36.200Z,0
2017-07-22T01:10:38.290Z,0
2017-07-22T01:11:40.723Z,0
2017-07-22T01:12:42.805Z,0
2017-07-22T01:13:44.897Z,0
2017-07-22T01:14:47.015Z,0
2017-07-22T01:15:49.118Z,0
2017-07-22T01:16:51.561Z,0
2017-07-22T01:17:54.004Z,0
2017-07-22T01:18:57.126Z,0
2017-07-22T01:19:59.535Z,0
2017-07-22T01:21:02.296Z,0
2017-07-22T01:22:04.401Z,0
2017-07-22T01:23:06.502Z,0
2017-07-22T01:24:08.594Z,0
2017-07-22T01:25:10.678Z,0
2017-07-22T01:26:12.818Z,0
2017-07-22T01:27:14.906Z,0
2017-07-22T01:28:17.339Z,0
2017-07-22T01:29:19.434Z,0
2017-07-22T01:30:21.527Z,0
2017-07-22T01:31:23.611Z,0
2017-07-22T01:32:25.694Z,0
2017-07-22T01:33:27.787Z,0
2017-07-22T01:34:30.205Z,0
2017-07-22T01:35:32.285Z,0
2017-07-22T01:36:34.372Z,0
2017-07-22T01:37:36.791Z,0
2017-07-22T01:38:39.291Z,0
2017-07-22T01:39:41.382Z,0
2017-07-22T01:40:43.456Z,0
2017-07-22T01:41:45.561Z,0
2017-07-22T01:42:47.656Z,0
2017-07-22T01:43:49.754Z,0
2017-07-22T01:44:51.841Z,0
2017-07-22T01:45:54.592Z,0
2017-07-22T01:46:56.691Z,0
2017-07-22T01:47:58.767Z,0
2017-07-22T01:49:01.198Z,0
2017-07-22T01:50:03.301Z,0
2017-07-22T01:51:05.746Z,0
2017-07-22T01:52:08.178Z,0
2017-07-22T01:53:10.280Z,0
2017-07-22T01:54:13.037Z,0
2017-07-22T01:55:15.121Z,0
2017-07-22T01:56:17.201Z,0
2017-07-22T01:57:19.290Z,0
2017-07-22T01:58:21.721Z,0
2017-07-22T01:59:24.158Z,0
2017-07-22T02:00:26.243Z,0
2017-07-22T02:01:28.343Z,0
2017-07-22T02:02:30.424Z,0
2017-07-22T02:03:32.510Z,0
2017-07-22T02:04:34.606Z,0
2017-07-22T02:05:36.696Z,0
2017-07-22T02:06:39.131Z,0
2017-07-22T02:07:41.222Z,0
2017-07-22T02:08:43.328Z,0
2017-07-22T02:09:45.425Z,0
2017-07-22T02:10:47.839Z,0
2017-07-22T02:11:50.284Z,0
2017-07-22T02:12:52.375Z,0
2017-07-22T02:13:54.443Z,0
2017-07-22T02:14:56.533Z,0
2017-07-22T02:15:58.644Z,0
2017-07-22T02:17:00.721Z,0
2017-07-22T02:18:02.814Z,0
2017-07-22T02:19:05.578Z,0
2017-07-22T02:20:07.695Z,0
2017-07-22T02:21:09.780Z,0
2017-07-22T02:22:11.871Z,0
2017-07-22T02:23:14.319Z,0
2017-07-22T02:24:16.750Z,0
2017-07-22T02:25:18.843Z,0
2017-07-22T02:26:20.938Z,0
2017-07-22T02:27:23.036Z,0
2017-07-22T02:28:25.471Z,0
2017-07-22T02:29:27.561Z,0
2017-07-22T02:30:29.995Z,0
2017-07-22T02:31:32.438Z,0
2017-07-22T02:32:34.895Z,0
2017-07-22T02:33:36.989Z,0
2017-07-22T02:34:39.430Z,0
2017-07-22T02:35:41.880Z,0
2017-07-22T02:36:44.311Z,0
2017-07-22T02:37:46.391Z,0
2017-07-22T02:38:48.482Z,0
2017-07-22T02:39:50.603Z,0
2017-07-22T02:40:53.385Z,0
2017-07-22T02:41:55.808Z,0
2017-07-22T02:42:58.264Z,0
2017-07-22T02:44:00.698Z,0
2017-07-22T02:45:03.473Z,0
2017-07-22T02:46:05.910Z,0
2017-07-22T02:47:08.366Z,0
2017-07-22T02:48:10.464Z,0
2017-07-22T02:49:12.568Z,0
2017-07-22T02:50:15.000Z,0
2017-07-22T02:51:17.093Z,0
2017-07-22T02:52:19.529Z,0
2017-07-22T02:53:21.609Z,0
2017-07-22T02:54:23.702Z,0
2017-07-22T02:55:25.789Z,0
2017-07-22T02:56:27.894Z,0
2017-07-22T02:57:29.990Z,0
2017-07-22T02:58:32.437Z,0
2017-07-22T02:59:34.529Z,1
2017-07-22T03:00:36.622Z,1
2017-07-22T03:01:38.696Z,1
2017-07-22T03:02:41.137Z,1
2017-07-22T03:03:43.556Z,1
2017-07-22T03:04:45.646Z,1
2017-07-22T03:05:47.743Z,1
2017-07-22T03:06:50.178Z,2
2017-07-22T03:07:52.273Z,2
2017-07-22T03:08:54.694Z,2
2017-07-22T03:09:56.782Z,2
2017-07-22T03:10:59.226Z,2
2017-07-22T03:12:02.021Z,2
2017-07-22T03:13:04.460Z,2
2017-07-22T03:14:06.900Z,3
2017-07-22T03:15:09.320Z,3
2017-07-22T03:16:11.431Z,3
2017-07-22T03:17:13.511Z,3
2017-07-22T03:18:15.616Z,3
2017-07-22T03:19:17.703Z,3
2017-07-22T03:20:20.136Z,3
2017-07-22T03:21:22.230Z,4
2017-07-22T03:22:24.677Z,4
2017-07-22T03:23:26.774Z,4
2017-07-22T03:24:29.210Z,4
2017-07-22T03:25:31.612Z,5
2017-07-22T03:26:33.697Z,5
2017-07-22T03:27:35.811Z,5
2017-07-22T03:28:37.888Z,5
2017-07-22T03:29:40.000Z,6
2017-07-22T03:30:42.450Z,6
2017-07-22T03:31:44.883Z,6
2017-07-22T03:32:46.968Z,7
2017-07-22T03:33:49.757Z,7
2017-07-22T03:34:51.830Z,8
2017-07-22T03:35:54.270Z,8
2017-07-22T03:36:57.050Z,9
2017-07-22T03:37:59.518Z,9
2017-07-22T03:39:01.956Z,10
2017-07-22T03:40:04.050Z,11
2017-07-22T03:41:06.146Z,11
2017-07-22T03:42:08.569Z,12
2017-07-22T03:43:10.660Z,13
2017-07-22T03:44:12.770Z,13
2017-07-22T03:45:14.864Z,14
2017-07-22T03:46:16.952Z,14
2017-07-22T03:47:19.389Z,15
2017-07-22T03:48:21.816Z,15
2017-07-22T03:49:23.920Z,15
2017-07-22T03:50:26.361Z,15
2017-07-22T03:51:28.808Z,15
2017-07-22T03:52:30.891Z,15
2017-07-22T03:53:33.652Z,15
2017-07-22T03:54:35.754Z,15
2017-07-22T03:55:38.560Z,16
2017-07-22T03:56:40.980Z,17
2017-07-22T03:57:43.071Z,17
2017-07-22T03:58:45.524Z,17
2017-07-22T03:59:47.616Z,17
2017-07-22T04:00:49.696Z,17
2017-07-22T04:01:51.798Z,17
2017-07-22T04:02:54.246Z,17
2017-07-22T04:03:56.339Z,18
2017-07-22T04:04:58.432Z,18
2017-07-22T04:06:01.253Z,18
2017-07-22T04:07:03.344Z,18
2017-07-22T04:08:05.452Z,19
2017-07-22T04:09:07.550Z,19
2017-07-22T04:10:09.965Z,20
2017-07-22T04:11:12.401Z,21
2017-07-22T04:12:14.493Z,22
2017-07-22T04:13:16.930Z,23
2017-07-22T04:14:19.376Z,24
2017-07-22T04:15:21.471Z,25
2017-07-22T04:16:23.902Z,26
2017-07-22T04:17:26.316Z,27
2017-07-22T04:18:28.740Z,27
2017-07-22T04:19:31.180Z,28
2017-07-22T04:20:33.267Z,28
2017-07-22T04:21:35.357Z,29
2017-07-22T04:22:37.458Z,29
2017-07-22T04:23:40.245Z,30
2017-07-22T04:24:42.341Z,30
2017-07-22T04:25:44.426Z,31
2017-07-22T04:26:46.536Z,32
2017-07-22T04:27:49.306Z,32
2017-07-22T04:28:51.393Z,33
2017-07-22T04:29:53.473Z,34
2017-07-22T04:30:55.575Z,35
2017-07-22T04:31:58.018Z,36
2017-07-22T04:33:00.792Z,36
2017-07-22T04:34:03.585Z,37
2017-07-22T04:35:06.019Z,37
2017-07-22T04:36:08.441Z,37
2017-07-22T04:37:10.521Z,37
2017-07-22T04:38:12.942Z,37
2017-07-22T04:39:15.061Z,37
2017-07-22T04:40:17.147Z,38
2017-07-22T04:41:19.563Z,38
2017-07-22T04:42:21.669Z,36
2017-07-22T04:43:24.106Z,35
2017-07-22T04:44:26.199Z,34
2017-07-22T04:45:28.300Z,34
2017-07-22T04:46:30.400Z,33
2017-07-22T04:47:32.485Z,33
2017-07-22T04:48:34.601Z,32
2017-07-22T04:49:36.711Z,32
2017-07-22T04:50:39.146Z,32
2017-07-22T04:51:41.244Z,30
2017-07-22T04:52:43.335Z,30
2017-07-22T04:53:45.466Z,29
2017-07-22T04:54:47.584Z,28
2017-07-22T04:55:49.687Z,27
2017-07-22T04:56:51.786Z,26
2017-07-22T04:57:53.907Z,25
2017-07-22T04:58:56.015Z,24
2017-07-22T04:59:58.783Z,24
2017-07-22T05:01:01.267Z,25
2017-07-22T05:02:03.376Z,25
2017-07-22T05:03:05.822Z,26
2017-07-22T05:04:07.922Z,27
2017-07-22T05:05:10.420Z,28
2017-07-22T05:06:12.528Z,29
2017-07-22T05:07:14.637Z,30
2017-07-22T05:08:16.740Z,31
2017-07-22T05:09:19.184Z,32
2017-07-22T05:10:21.292Z,33
2017-07-22T05:11:23.394Z,35
2017-07-22T05:12:25.509Z,35
2017-07-22T05:13:27.968Z,36
2017-07-22T05:14:30.059Z,37
2017-07-22T05:15:32.166Z,39
2017-07-22T05:16:34.622Z,41
2017-07-22T05:17:36.733Z,43
2017-07-22T05:18:38.846Z,44
2017-07-22T05:19:40.959Z,46
2017-07-22T05:20:43.070Z,45
2017-07-22T05:21:45.184Z,46
2017-07-22T05:22:47.286Z,47
2017-07-22T05:23:49.381Z,49
2017-07-22T05:24:51.489Z,51
2017-07-22T05:25:53.951Z,52
2017-07-22T05:26:56.058Z,54
2017-07-22T05:27:58.517Z,55
2017-07-22T05:29:00.628Z,56
2017-07-22T05:30:03.447Z,56
2017-07-22T05:31:05.539Z,57
2017-07-22T05:32:07.656Z,59
2017-07-22T05:33:09.810Z,58
2017-07-22T05:34:12.071Z,58
2017-07-22T05:35:14.563Z,58
2017-07-22T05:36:17.054Z,57
2017-07-22T05:37:19.501Z,56
2017-07-22T05:38:21.619Z,55
2017-07-22T05:39:23.714Z,56
2017-07-22T05:40:26.174Z,56
2017-07-22T05:41:28.275Z,56
2017-07-22T05:42:30.391Z,56
2017-07-22T05:43:32.506Z,56
2017-07-22T05:44:34.606Z,57
2017-07-22T05:45:36.715Z,59
2017-07-22T05:46:39.572Z,60
2017-07-22T05:47:41.662Z,60
2017-07-22T05:48:43.775Z,60
2017-07-22T05:49:45.897Z,61
2017-07-22T05:50:48.003Z,62
2017-07-22T05:51:50.110Z,63
2017-07-22T05:52:52.226Z,65
2017-07-22T05:53:54.712Z,67
2017-07-22T05:54:56.812Z,68
2017-07-22T05:55:58.922Z,68
2017-07-22T05:57:01.045Z,68
2017-07-22T05:58:03.157Z,69
2017-07-22T05:59:05.269Z,71
2017-07-22T06:00:07.395Z,70
2017-07-22T06:01:09.499Z,71
2017-07-22T06:02:11.969Z,72
2017-07-22T06:03:14.062Z,73
2017-07-22T06:04:16.165Z,73
2017-07-22T06:05:18.618Z,75
2017-07-22T06:06:20.741Z,75
2017-07-22T06:07:22.829Z,76
2017-07-22T06:08:24.935Z,76
2017-07-22T06:09:27.059Z,75
2017-07-22T06:10:29.203Z,75
2017-07-22T06:11:31.635Z,75
2017-07-22T06:12:33.749Z,75
2017-07-22T06:13:35.845Z,75
2017-07-22T06:14:37.977Z,75
2017-07-22T06:15:40.086Z,76
2017-07-22T06:16:42.189Z,76
2017-07-22T06:17:44.302Z,77
2017-07-22T06:18:46.395Z,78
2017-07-22T06:19:48.511Z,79
2017-07-22T06:20:50.970Z,80
2017-07-22T06:21:53.405Z,80
2017-07-22T06:22:55.506Z,80
2017-07-22T06:23:57.614Z,80
2017-07-22T06:25:00.068Z,80
2017-07-22T06:26:03.176Z,81
2017-07-22T06:27:05.264Z,82
2017-07-22T06:28:07.394Z,83
2017-07-22T06:29:09.502Z,85
2017-07-22T06:30:11.600Z,89
2017-07-22T06:31:13.720Z,92
2017-07-22T06:32:15.833Z,95
2017-07-22T06:33:17.939Z,95
2017-07-22T06:34:20.056Z,96
2017-07-22T06:35:22.168Z,96
2017-07-22T06:36:24.290Z,99
2017-07-22T06:37:26.421Z,101
2017-07-22T06:38:28.526Z,104
2017-07-22T06:39:30.617Z,104
2017-07-22T06:40:32.724Z,105
2017-07-22T06:41:34.833Z,106
2017-07-22T06:42:37.963Z,106
2017-07-22T06:43:40.067Z,105
2017-07-22T06:44:42.523Z,104
2017-07-22T06:45:44.991Z,104
2017-07-22T06:46:47.087Z,103
2017-07-22T06:47:49.191Z,101
2017-07-22T06:48:51.303Z,102
2017-07-22T06:49:53.416Z,104
2017-07-22T06:50:56.555Z,108
2017-07-22T06:51:58.648Z,110
2017-07-22T06:53:01.426Z,112
2017-07-22T06:54:03.533Z,113
2017-07-22T06:55:06.749Z,110
2017-07-22T06:56:09.226Z,113
2017-07-22T06:57:11.673Z,113
2017-07-22T06:58:14.114Z,113
2017-07-22T06:59:16.544Z,112
2017-07-22T07:00:18.660Z,113
2017-07-22T07:01:20.782Z,112
2017-07-22T07:02:22.890Z,114
2017-07-22T07:03:25.667Z,117
2017-07-22T07:04:28.112Z,119
2017-07-22T07:05:30.230Z,114
2017-07-22T07:06:32.328Z,105
2017-07-22T07:07:34.434Z,103
2017-07-22T07:08:37.245Z,99
2017-07-22T07:09:39.349Z,99
2017-07-22T07:10:41.774Z,100
2017-07-22T07:11:43.879Z,106
2017-07-22T07:12:45.976Z,115
2017-07-22T07:13:48.079Z,123
2017-07-22T07:14:50.183Z,128
2017-07-22T07:15:52.295Z,129
2017-07-22T07:16:54.409Z,127
2017-07-22T07:17:56.857Z,123
2017-07-22T07:18:59.021Z,128
2017-07-22T07:20:01.170Z,125
2017-07-22T07:21:03.282Z,122
2017-07-22T07:22:05.381Z,129
2017-07-22T07:23:07.838Z,138
2017-07-22T07:24:09.941Z,145
2017-07-22T07:25:12.384Z,145
2017-07-22T07:26:14.496Z,144
2017-07-22T07:27:16.598Z,147
2017-07-22T07:28:18.714Z,141
2017-07-22T07:29:20.802Z,141
2017-07-22T07:30:22.929Z,151
2017-07-22T07:31:25.049Z,157
2017-07-22T07:32:27.154Z,161
2017-07-22T07:33:29.249Z,162
2017-07-22T07:34:31.373Z,152
2017-07-22T07:35:33.459Z,139
2017-07-22T07:36:35.568Z,144
2017-07-22T07:37:37.674Z,151
2017-07-22T07:38:40.126Z,154
2017-07-22T07:39:42.923Z,159
2017-07-22T07:40:45.039Z,163
2017-07-22T07:41:47.122Z,170
2017-07-22T07:42:49.248Z,167
2017-07-22T07:43:51.702Z,164
2017-07-22T07:44:54.144Z,169
2017-07-22T07:45:56.277Z,166
2017-07-22T07:46:58.391Z,163
2017-07-22T07:48:00.841Z,163
2017-07-22T07:49:03.282Z,161
2017-07-22T07:50:06.763Z,164
2017-07-22T07:51:09.223Z,163
2017-07-22T07:52:11.318Z,162
2017-07-22T07:53:13.768Z,160
2017-07-22T07:54:16.197Z,163
2017-07-22T07:55:18.655Z,169
2017-07-22T07:56:20.785Z,178
2017-07-22T07:57:22.899Z,184
2017-07-22T07:58:24.996Z,188
2017-07-22T07:59:27.103Z,194
2017-07-22T08:00:29.229Z,197
2017-07-22T08:01:31.329Z,202
2017-07-22T08:02:34.126Z,210
2017-07-22T08:03:36.236Z,214
2017-07-22T08:04:38.338Z,215
2017-07-22T08:05:40.471Z,217
2017-07-22T08:06:42.576Z,213
2017-07-22T08:07:45.029Z,215
2017-07-22T08:08:47.142Z,213
2017-07-22T08:09:49.230Z,201
2017-07-22T08:10:51.366Z,200
2017-07-22T08:11:53.490Z,205
2017-07-22T08:12:55.596Z,207
2017-07-22T08:13:57.693Z,204
2017-07-22T08:14:59.812Z,202
2017-07-22T08:16:01.943Z,202
2017-07-22T08:17:04.035Z,208
2017-07-22T08:18:06.140Z,209
2017-07-22T08:19:08.250Z,202
2017-07-22T08:20:10.373Z,197
2017-07-22T08:21:12.503Z,191
2017-07-22T08:22:14.610Z,177
2017-07-22T08:23:17.065Z,163
2017-07-22T08:24:19.511Z,154
2017-07-22T08:25:21.616Z,148
2017-07-22T08:26:24.074Z,147
2017-07-22T08:27:26.197Z,148
2017-07-22T08:28:28.299Z,149
2017-07-22T08:29:30.772Z,150
2017-07-22T08:30:33.578Z,148
2017-07-22T08:31:35.706Z,145
2017-07-22T08:32:37.820Z,143
2017-07-22T08:33:39.911Z,141
2017-07-22T08:34:42.026Z,138
2017-07-22T08:35:44.850Z,134
2017-07-22T08:36:47.300Z,131
2017-07-22T08:37:49.414Z,127
2017-07-22T08:38:52.192Z,122
2017-07-22T08:39:54.299Z,116
2017-07-22T08:40:56.735Z,112
2017-07-22T08:41:58.837Z,106
2017-07-22T08:43:00.974Z,101
2017-07-22T08:44:03.415Z,96
2017-07-22T08:45:06.195Z,91
2017-07-22T08:46:08.312Z,85
2017-07-22T08:47:10.432Z,80
2017-07-22T08:48:12.884Z,78
2017-07-22T08:49:14.989Z,75
2017-07-22T08:50:17.109Z,73
2017-07-22T08:51:19.211Z,69
2017-07-22T08:52:21.328Z,66
2017-07-22T08:53:23.438Z,63
2017-07-22T08:54:25.534Z,61
2017-07-22T08:55:27.983Z,60
2017-07-22T08:56:30.429Z,61
2017-07-22T08:57:32.536Z,62
2017-07-22T08:58:34.649Z,64
2017-07-22T08:59:37.090Z,67
2017-07-22T09:00:39.574Z,69
2017-07-22T09:01:41.683Z,71
2017-07-22T09:02:44.128Z,74
2017-07-22T09:03:46.565Z,76
2017-07-22T09:04:49.002Z,77
2017-07-22T09:05:52.363Z,78
2017-07-22T09:06:54.488Z,79
2017-07-22T09:07:56.944Z,81
2017-07-22T09:08:59.376Z,84
2017-07-22T09:10:01.486Z,90
2017-07-22T09:11:03.604Z,95
2017-07-22T09:12:05.720Z,102
2017-07-22T09:13:08.505Z,104
2017-07-22T09:14:10.620Z,108
2017-07-22T09:15:12.721Z,112
2017-07-22T09:16:15.522Z,115
2017-07-22T09:17:17.618Z,117
2017-07-22T09:18:20.087Z,120
2017-07-22T09:19:22.564Z,120
2017-07-22T09:20:24.706Z,122
2017-07-22T09:21:26.819Z,125
2017-07-22T09:22:28.929Z,124
2017-07-22T09:23:31.042Z,124
2017-07-22T09:24:33.497Z,122
2017-07-22T09:25:35.593Z,119
2017-07-22T09:26:37.709Z,118
2017-07-22T09:27:39.818Z,119
2017-07-22T09:28:42.256Z,121
2017-07-22T09:29:44.698Z,123
2017-07-22T09:30:46.828Z,126
2017-07-22T09:31:48.917Z,128
2017-07-22T09:32:51.032Z,128
2017-07-22T09:33:53.140Z,127
2017-07-22T09:34:55.229Z,126
2017-07-22T09:35:57.344Z,125
2017-07-22T09:36:59.440Z,127
2017-07-22T09:38:01.928Z,130
2017-07-22T09:39:04.377Z,135
2017-07-22T09:40:06.815Z,141
2017-07-22T09:41:09.272Z,149
2017-07-22T09:42:11.381Z,160
2017-07-22T09:43:13.492Z,159
2017-07-22T09:44:15.624Z,159
2017-07-22T09:45:17.741Z,158
2017-07-22T09:46:20.217Z,157
2017-07-22T09:47:22.339Z,158
2017-07-22T09:48:24.449Z,159
2017-07-22T09:49:26.891Z,158
2017-07-22T09:50:28.992Z,156
2017-07-22T09:51:31.106Z,154
2017-07-22T09:52:33.545Z,154
2017-07-22T09:53:35.648Z,152
2017-07-22T09:54:37.753Z,147
2017-07-22T09:55:39.874Z,138
2017-07-22T09:56:41.990Z,131
2017-07-22T09:57:44.462Z,126
2017-07-22T09:58:46.573Z,122
2017-07-22T09:59:48.690Z,118
2017-07-22T10:00:51.149Z,113
2017-07-22T10:01:53.939Z,106
2017-07-22T10:02:56.053Z,98
2017-07-22T10:03:58.169Z,91
2017-07-22T10:05:00.265Z,84
2017-07-22T10:06:02.722Z,80
2017-07-22T10:07:05.167Z,76
2017-07-22T10:08:07.266Z,73
2017-07-22T10:09:09.377Z,72
2017-07-22T10:10:12.189Z,72
2017-07-22T10:11:14.357Z,71
2017-07-22T10:12:16.465Z,70
2017-07-22T10:13:18.908Z,69
2017-07-22T10:14:21.028Z,68
2017-07-22T10:15:23.141Z,67
2017-07-22T10:16:25.613Z,65
2017-07-22T10:17:27.724Z,63
2017-07-22T10:18:29.839Z,62
2017-07-22T10:19:31.954Z,60
2017-07-22T10:20:34.381Z,59
2017-07-22T10:21:36.488Z,58
2017-07-22T10:22:38.942Z,56
2017-07-22T10:23:41.765Z,55
2017-07-22T10:24:43.887Z,55
2017-07-22T10:25:46.019Z,54
2017-07-22T10:26:48.480Z,54
2017-07-22T10:27:50.591Z,55
2017-07-22T10:28:52.706Z,57
2017-07-22T10:29:55.149Z,62
2017-07-22T10:30:57.604Z,65
2017-07-22T10:31:59.738Z,66
2017-07-22T10:33:02.180Z,64
2017-07-22T10:34:04.288Z,64
2017-07-22T10:35:06.409Z,64
2017-07-22T10:36:08.517Z,64
2017-07-22T10:37:10.608Z,64
2017-07-22T10:38:12.732Z,64
2017-07-22T10:39:14.853Z,64
2017-07-22T10:40:17.317Z,65
2017-07-22T10:41:19.755Z,65
2017-07-22T10:42:22.220Z,65
2017-07-22T10:43:24.332Z,66
2017-07-22T10:44:26.463Z,66
2017-07-22T10:45:29.254Z,68
2017-07-22T10:46:31.379Z,70
2017-07-22T10:47:33.823Z,73
2017-07-22T10:48:36.264Z,74
2017-07-22T10:49:38.393Z,71
2017-07-22T10:50:40.500Z,66
2017-07-22T10:51:42.615Z,61
2017-07-22T10:52:45.064Z,58
2017-07-22T10:53:47.181Z,54
2017-07-22T10:54:49.300Z,50
2017-07-22T10:55:51.396Z,44
2017-07-22T10:56:53.520Z,40
2017-07-22T10:57:55.633Z,40
2017-07-22T10:58:57.755Z,40
2017-07-22T10:59:59.869Z,43
2017-07-22T11:01:02.309Z,47
2017-07-22T11:02:04.419Z,52
2017-07-22T11:03:06.567Z,55
2017-07-22T11:04:08.676Z,58
2017-07-22T11:05:10.763Z,56
2017-07-22T11:06:12.879Z,49
2017-07-22T11:07:15.243Z,41
2017-07-22T11:08:17.369Z,36
2017-07-22T11:09:19.487Z,34
2017-07-22T11:10:21.938Z,34
2017-07-22T11:11:24.049Z,37
2017-07-22T11:12:26.146Z,41
2017-07-22T11:13:28.945Z,46
2017-07-22T11:14:31.419Z,54
2017-07-22T11:15:33.550Z,62
2017-07-22T11:16:35.721Z,70
2017-07-22T11:17:37.830Z,74
2017-07-22T11:18:39.937Z,74
2017-07-22T11:19:42.724Z,70
2017-07-22T11:20:44.832Z,63
2017-07-22T11:21:46.944Z,54
2017-07-22T11:22:49.053Z,47
2017-07-22T11:23:51.157Z,46
2017-07-22T11:24:53.643Z,50
2017-07-22T11:25:55.761Z,48
2017-07-22T11:26:58.218Z,46
2017-07-22T11:28:00.316Z,42
2017-07-22T11:29:02.429Z,40
2017-07-22T11:30:04.542Z,38
2017-07-22T11:31:07.002Z,38
2017-07-22T11:32:09.111Z,39
2017-07-22T11:33:11.208Z,41
2017-07-22T11:34:13.675Z,43
2017-07-22T11:35:16.121Z,46
2017-07-22T11:36:18.236Z,47
2017-07-22T11:37:20.700Z,47
2017-07-22T11:38:22.796Z,46
2017-07-22T11:39:24.905Z,44
2017-07-22T11:40:27.002Z,42
2017-07-22T11:41:29.115Z,41
2017-07-22T11:42:31.222Z,40
2017-07-22T11:43:33.342Z,41
2017-07-22T11:44:36.124Z,40
2017-07-22T11:45:38.564Z,38
2017-07-22T11:46:40.672Z,36
2017-07-22T11:47:42.797Z,34
2017-07-22T11:48:45.241Z,35
2017-07-22T11:49:47.685Z,36
2017-07-22T11:50:49.791Z,37
2017-07-22T11:51:51.916Z,37
2017-07-22T11:52:54.016Z,38
2017-07-22T11:53:56.133Z,39
2017-07-22T11:54:58.237Z,41
2017-07-22T11:56:00.679Z,42
2017-07-22T11:57:03.472Z,44
2017-07-22T11:58:05.576Z,44
2017-07-22T11:59:08.379Z,44
2017-07-22T12:00:10.873Z,44
2017-07-22T12:01:13.044Z,45
2017-07-22T12:02:15.177Z,47
2017-07-22T12:03:17.294Z,48
2017-07-22T12:04:20.109Z,50
2017-07-22T12:05:22.252Z,51
2017-07-22T12:06:24.374Z,52
2017-07-22T12:07:26.577Z,52
2017-07-22T12:08:28.691Z,51
2017-07-22T12:09:31.534Z,52
2017-07-22T12:10:33.671Z,54
2017-07-22T12:11:35.858Z,58
2017-07-22T12:12:38.034Z,61
2017-07-22T12:13:40.497Z,62
2017-07-22T12:14:42.611Z,62
2017-07-22T12:15:44.736Z,63
2017-07-22T12:16:47.213Z,62
2017-07-22T12:17:49.700Z,60
2017-07-22T12:18:52.214Z,58
2017-07-22T12:19:54.707Z,57
2017-07-22T12:20:56.844Z,57
2017-07-22T12:21:59.002Z,57
2017-07-22T12:23:01.152Z,56
2017-07-22T12:24:03.958Z,55
2017-07-22T12:25:06.427Z,58
2017-07-22T12:26:08.558Z,63
2017-07-22T12:27:10.690Z,68
2017-07-22T12:28:12.832Z,73
2017-07-22T12:29:15.314Z,83
2017-07-22T12:30:17.480Z,93
2017-07-22T12:31:19.619Z,97
2017-07-22T12:32:21.757Z,97
2017-07-22T12:33:23.929Z,96
2017-07-22T12:34:26.439Z,92
2017-07-22T12:35:28.568Z,83
2017-07-22T12:36:31.092Z,74
2017-07-22T12:37:33.920Z,69
2017-07-22T12:38:36.395Z,68
2017-07-22T12:39:38.556Z,69
2017-07-22T12:40:40.705Z,70
2017-07-22T12:41:42.872Z,70
2017-07-22T12:42:44.978Z,71
2017-07-22T12:43:47.455Z,71
2017-07-22T12:44:50.290Z,70
2017-07-22T12:45:52.434Z,71
2017-07-22T12:46:54.591Z,75
2017-07-22T12:47:56.699Z,81
2017-07-22T12:48:59.170Z,86
2017-07-22T12:50:01.303Z,91
2017-07-22T12:51:03.801Z,94
2017-07-22T12:52:05.940Z,97
2017-07-22T12:53:08.097Z,94
2017-07-22T12:54:10.577Z,85
2017-07-22T12:55:12.725Z,75
2017-07-22T12:56:15.115Z,63
2017-07-22T12:57:17.622Z,53
2017-07-22T12:58:19.754Z,48
2017-07-22T12:59:22.281Z,46
2017-07-22T13:00:24.789Z,50
2017-07-22T13:01:27.307Z,53
2017-07-22T13:02:30.248Z,56
2017-07-22T13:03:32.431Z,59
2017-07-22T13:04:34.579Z,60
2017-07-22T13:05:36.748Z,59
2017-07-22T13:06:38.913Z,58
2017-07-22T13:07:41.077Z,59
2017-07-22T13:08:43.613Z,61
2017-07-22T13:09:45.778Z,65
2017-07-22T13:10:47.890Z,66
2017-07-22T13:11:50.374Z,63
2017-07-22T13:12:52.530Z,59
2017-07-22T13:13:54.720Z,55
2017-07-22T13:14:57.521Z,55
2017-07-22T13:16:00.028Z,57
2017-07-22T13:17:02.497Z,60
2017-07-22T13:18:05.043Z,62
2017-07-22T13:19:07.209Z,65
2017-07-22T13:20:09.374Z,68
2017-07-22T13:21:11.543Z,70
2017-07-22T13:22:13.689Z,69
2017-07-22T13:23:16.147Z,66
2017-07-22T13:24:18.307Z,63
2017-07-22T13:25:20.840Z,59
2017-07-22T13:26:23.341Z,55
2017-07-22T13:27:25.490Z,52
2017-07-22T13:28:27.629Z,48
2017-07-22T13:29:29.785Z,46
2017-07-22T13:30:32.262Z,44
2017-07-22T13:31:34.751Z,42
2017-07-22T13:32:36.895Z,40
2017-07-22T13:33:39.377Z,38
2017-07-22T13:34:41.497Z,37
2017-07-22T13:35:43.664Z,37
2017-07-22T13:36:45.827Z,39
2017-07-22T13:37:47.972Z,40
2017-07-22T13:38:50.101Z,40
2017-07-22T13:39:52.586Z,38
2017-07-22T13:40:55.073Z,37
2017-07-22T13:41:57.222Z,37
2017-07-22T13:42:59.662Z,42
2017-07-22T13:44:01.813Z,51
2017-07-22T13:45:03.963Z,58
2017-07-22T13:46:06.453Z,59
2017-07-22T13:47:08.581Z,56
2017-07-22T13:48:10.726Z,52
2017-07-22T13:49:13.192Z,49
2017-07-22T13:50:15.331Z,46
2017-07-22T13:51:17.432Z,43
2017-07-22T13:52:19.564Z,40
2017-07-22T13:53:22.415Z,38
2017-07-22T13:54:24.861Z,37
2017-07-22T13:55:26.968Z,37
2017-07-22T13:56:29.126Z,35
2017-07-22T13:57:31.897Z,33
2017-07-22T13:58:34.005Z,32
2017-07-22T13:59:36.112Z,30
2017-07-22T14:00:38.212Z,30
2017-07-22T14:01:40.340Z,32
2017-07-22T14:02:42.433Z,36
2017-07-22T14:03:44.561Z,39
2017-07-22T14:04:46.998Z,40
2017-07-22T14:05:49.116Z,40
2017-07-22T14:06:51.901Z,39
2017-07-22T14:07:54.012Z,36
2017-07-22T14:08:56.133Z,34
2017-07-22T14:09:58.244Z,32
2017-07-22T14:11:00.692Z,32
2017-07-22T14:12:03.142Z,33
2017-07-22T14:13:05.259Z,32
2017-07-22T14:14:07.707Z,32
2017-07-22T14:15:09.818Z,31
2017-07-22T14:16:11.922Z,27
2017-07-22T14:17:14.026Z,24
2017-07-22T14:18:16.469Z,24
2017-07-22T14:19:18.604Z,23
2017-07-22T14:20:21.073Z,21
2017-07-22T14:21:23.199Z,21
2017-07-22T14:22:25.290Z,18
2017-07-22T14:23:27.401Z,18
2017-07-22T14:24:29.547Z,18
2017-07-22T14:25:31.654Z,19
2017-07-22T14:26:33.750Z,18
2017-07-22T14:27:35.868Z,16
2017-07-22T14:28:38.314Z,17
2017-07-22T14:29:40.761Z,17
2017-07-22T14:30:43.233Z,16
2017-07-22T14:31:45.390Z,16
2017-07-22T14:32:47.499Z,16
2017-07-22T14:33:49.621Z,16
2017-07-22T14:34:51.724Z,16
2017-07-22T14:35:53.833Z,14
2017-07-22T14:36:55.963Z,11
2017-07-22T14:37:58.417Z,10
2017-07-22T14:39:00.520Z,11
2017-07-22T14:40:02.968Z,11
2017-07-22T14:41:05.439Z,13
2017-07-22T14:42:07.884Z,12
2017-07-22T14:43:09.992Z,12
2017-07-22T14:44:13.145Z,12
2017-07-22T14:45:15.609Z,12
2017-07-22T14:46:17.725Z,11
2017-07-22T14:47:19.845Z,11
2017-07-22T14:48:21.969Z,12
2017-07-22T14:49:24.081Z,13